Aérodrome :
LOGIN :

S'inscrire | Disclaimer

   EN    FR    IT 

 










Légende :    VFR   VFR Marginal   IFR   IFR Intensif   IFR Très Intensif
Visi : 
Plafond : 
>= 8 km
>= 3000ft
5 à 8 km
1000 à 3000 ft
1500m à 5 km
500 à 1000 ft
800 à 1500m
200 à 500 ft
< 800m
< 200 ft
Symboles :   Orages  Brouillard  Fortes neiges  Fortes précipitations  Vent > 20 kt
SIGMETs :   Divers  Orages  Givrage  Turbulence  Onde Orograph.  Cendres Volcan.






- Altitude de l'aérodrome : 295 ft
- Code IATA : BWE


EDVE - Braunschweig

DERNIER METAR :
  • 201350Z VRB01KT 9000 SCT005 BKN023 OVC028 05/03 Q1017

METARs EXPIRÉS :
  • 201320Z 36002KT 9999 FEW009 BKN020 OVC024 05/03 Q1017
  • 201250Z VRB01KT 9999 SCT009 OVC012 05/03 Q1018
  • 201220Z VRB02KT 8000 BKN006 OVC009 05/03 Q1018
  • 201150Z VRB03KT 9000 BKN005 OVC011 05/03 Q1018
  • 201120Z VRB02KT 9999 SCT005 OVC007 05/03 Q1018

TAF TAF EDVE
Valide du 20 à 12h jusqu'au 20 à 21h UTC


201100Z 2012/2021 VRB02KT 5000 BR BKN006
TEMPO 2012/2021 2500 -RA BKN004
PROB40
TEMPO 2012/2021 SCT006 BKN020



MET'MAP, la Météo Aéronautique d'un coup d'oeil ! - Copyright ORBIFLY Décembre 2007 - Disclaimer

ORBIFLY MET'MAP TEAM :

Programmation & Développement : Alexandra Zaïnal
Conception & Développement : Baudouin d'Aumeries
Co-Programmation & Développement : Marc-Olivier Méhu
Soutien technique & logistique : Manuel Goepfert

Contact : metmap@orbifly.com




SOURCES & CREDITS :

   NOAA